Time;durP1;ratioP1;P1;durP2;ratioP2;P2;SDS_P1;SDS_P2;PMS_P1;PMS_P2;Temp;Humidity;BMP_temperature;BMP_pressure;BME280_temperature;BME280_humidity;BME280_pressure;Samples;Min_cycle;Max_cycle;Signal;HPM_P1;HPM_P2
2023/12/20 00:01:08;;;;;;;28.48;26.05;;;;;;;-1.63;100.00;101445.91;5018539;28;20054;-75
2023/12/20 00:03:34;;;;;;;26.52;24.38;;;;;;;-1.79;100.00;101443.53;5009352;28;20431;-75
2023/12/20 00:06:05;;;;;;;24.55;22.55;;;;;;;-1.56;100.00;101435.88;5010815;28;20041;-75
2023/12/20 00:08:32;;;;;;;23.35;21.55;;;;;;;-1.26;100.00;101438.88;5024296;28;20065;-75
2023/12/20 00:10:59;;;;;;;27.52;24.75;;;;;;;-1.64;100.00;101429.41;5012086;28;20042;-75
2023/12/20 00:13:25;;;;;;;24.60;22.65;;;;;;;-1.68;100.00;101429.75;5014754;28;20439;-77
2023/12/20 00:15:53;;;;;;;27.63;25.50;;;;;;;-1.41;100.00;101434.75;5013196;28;20049;-74
2023/12/20 00:18:21;;;;;;;32.35;29.85;;;;;;;-1.22;100.00;101427.25;5017109;28;20137;-75
2023/12/20 00:20:48;;;;;;;31.88;29.58;;;;;;;-1.47;100.00;101430.00;5021867;28;20063;-74
2023/12/20 00:23:17;;;;;;;25.75;23.85;;;;;;;-1.43;100.00;101429.66;5026120;28;20050;-75
2023/12/20 00:25:43;;;;;;;31.15;28.50;;;;;;;-1.56;100.00;101430.66;5016742;28;20077;-75
2023/12/20 00:28:10;;;;;;;25.35;23.50;;;;;;;-1.71;100.00;101429.97;5015492;28;20048;-75
2023/12/20 00:30:37;;;;;;;28.17;26.08;;;;;;;-1.65;100.00;101430.34;5012725;28;20446;-74
2023/12/20 00:33:05;;;;;;;22.80;21.10;;;;;;;-1.56;100.00;101428.03;5023386;28;20057;-74
2023/12/20 00:35:32;;;;;;;27.90;25.40;;;;;;;-1.51;100.00;101418.09;5013515;28;20050;-75
2023/12/20 00:37:59;;;;;;;26.58;24.58;;;;;;;-1.28;100.00;101425.09;5021061;28;20053;-75
2023/12/20 00:40:27;;;;;;;25.23;23.30;;;;;;;-1.26;100.00;101417.19;5007077;28;20058;-75
2023/12/20 00:42:54;;;;;;;24.10;22.20;;;;;;;-1.50;100.00;101414.56;4993767;28;20435;-75
2023/12/20 00:45:22;;;;;;;25.05;23.20;;;;;;;-1.43;100.00;101405.38;5005389;28;20050;-75
2023/12/20 00:47:48;;;;;;;25.27;23.35;;;;;;;-1.08;100.00;101410.63;4992933;28;20076;-75
2023/12/20 00:50:16;;;;;;;26.73;24.73;;;;;;;-1.07;100.00;101412.28;5015326;28;20061;-75
2023/12/20 00:52:45;;;;;;;25.55;23.60;;;;;;;-1.07;100.00;101417.47;5013316;28;20053;-75
2023/12/20 00:55:21;;;;;;;24.13;22.23;;;;;;;-1.09;100.00;101398.53;5011003;28;20136;-75
2023/12/20 00:57:50;;;;;;;25.98;24.00;;;;;;;-1.13;100.00;101396.25;5005773;28;20053;-76
2023/12/20 01:00:17;;;;;;;29.90;27.90;;;;;;;-1.22;100.00;101389.94;5007570;28;20177;-76
2023/12/20 01:02:46;;;;;;;26.17;24.17;;;;;;;-1.13;100.00;101386.66;5013345;28;20439;-75
2023/12/20 01:05:13;;;;;;;30.42;28.23;;;;;;;-1.15;100.00;101378.09;5022887;28;20049;-76
2023/12/20 01:07:40;;;;;;;26.40;24.40;;;;;;;-1.36;100.00;101379.69;5014862;28;20053;-76
2023/12/20 01:10:07;;;;;;;24.17;22.40;;;;;;;-1.14;100.00;101376.34;5004359;28;20053;-75
2023/12/20 01:12:34;;;;;;;24.00;22.20;;;;;;;-1.11;100.00;101368.31;5011857;28;20058;-75
2023/12/20 01:15:02;;;;;;;25.45;23.55;;;;;;;-1.38;100.00;101367.59;5013803;28;20505;-76
2023/12/20 01:17:29;;;;;;;27.60;25.50;;;;;;;-1.31;100.00;101365.38;4998546;28;20042;-75
2023/12/20 01:19:56;;;;;;;27.33;25.33;;;;;;;-1.23;100.00;101357.00;5009499;28;20309;-75
2023/12/20 01:22:23;;;;;;;25.63;23.85;;;;;;;-1.59;100.00;101356.16;5011885;28;20061;-74
2023/12/20 01:24:50;;;;;;;28.33;26.13;;;;;;;-1.48;100.00;101347.56;5016886;28;20056;-75
2023/12/20 01:27:16;;;;;;;27.10;25.10;;;;;;;-1.28;100.00;101346.06;5007141;28;20049;-76
2023/12/20 01:29:43;;;;;;;25.77;23.88;;;;;;;-1.13;100.00;101336.28;5005748;28;20042;-74
2023/12/20 01:32:11;;;;;;;29.83;27.52;;;;;;;-1.55;100.00;101328.09;4994128;28;20054;-75
2023/12/20 01:34:38;;;;;;;29.08;26.88;;;;;;;-1.55;100.00;101333.31;5009567;28;20066;-73
2023/12/20 01:37:05;;;;;;;25.95;23.95;;;;;;;-1.78;100.00;101316.75;5009918;28;20053;-75
2023/12/20 01:39:32;;;;;;;24.40;22.45;;;;;;;-1.95;100.00;101317.97;5018845;28;20053;-74
2023/12/20 01:42:00;;;;;;;23.48;21.67;;;;;;;-2.05;100.00;101306.56;5027205;28;20136;-74
2023/12/20 01:44:27;;;;;;;25.42;23.45;;;;;;;-2.15;100.00;101298.53;5017115;28;20054;-73
2023/12/20 01:46:55;;;;;;;28.85;26.55;;;;;;;-2.25;100.00;101293.16;5008377;28;20057;-74
2023/12/20 01:49:29;;;;;;;26.63;24.60;;;;;;;-2.20;100.00;101298.06;5015978;28;20056;-73
2023/12/20 01:51:56;;;;;;;25.55;23.63;;;;;;;-2.09;100.00;101292.91;5009584;28;20049;-74
2023/12/20 01:54:23;;;;;;;25.55;23.63;;;;;;;-1.94;100.00;101285.75;5009373;28;20088;-75
2023/12/20 01:56:51;;;;;;;25.02;23.23;;;;;;;-2.04;100.00;101284.78;5008864;28;20048;-75
2023/12/20 01:59:20;;;;;;;23.05;21.35;;;;;;;-2.07;100.00;101288.44;5025841;28;20600;-75
2023/12/20 02:01:48;;;;;;;27.17;25.00;;;;;;;-2.00;100.00;101286.22;5005584;28;20045;-74
2023/12/20 02:04:19;;;;;;;27.02;24.33;;;;;;;-1.91;100.00;101280.34;5020462;28;20049;-76
2023/12/20 02:06:47;;;;;;;26.20;24.30;;;;;;;-1.64;100.00;101274.88;4994671;28;20056;-75
2023/12/20 02:09:24;;;;;;;24.50;22.27;;;;;;;-1.44;100.00;101283.84;5012327;28;20161;-75
2023/12/20 02:11:51;;;;;;;26.70;24.67;;;;;;;-1.41;100.00;101281.00;5009566;28;20049;-74
2023/12/20 02:14:25;;;;;;;26.63;24.15;;;;;;;-1.57;100.00;101278.72;5008676;28;20132;-75
2023/12/20 02:16:52;;;;;;;29.90;27.73;;;;;;;-1.82;100.00;101276.25;5018786;28;20495;-75
2023/12/20 02:19:59;;;;;;;26.45;24.30;;;;;;;-1.89;100.00;101274.09;5007408;28;20054;-75
2023/12/20 02:22:36;;;;;;;26.83;24.75;;;;;;;-1.72;100.00;101266.81;5016351;28;20054;-75
2023/12/20 02:25:06;;;;;;;28.55;26.35;;;;;;;-1.52;100.00;101260.94;5014860;28;20045;-76
2023/12/20 02:27:33;;;;;;;25.63;23.70;;;;;;;-1.76;100.00;101254.94;5002794;28;20577;-76
2023/12/20 02:29:59;;;;;;;29.02;26.92;;;;;;;-1.55;100.00;101248.16;5008921;28;20054;-74
2023/12/20 02:32:27;;;;;;;30.02;27.85;;;;;;;-1.44;100.00;101249.97;5008960;28;20042;-75
2023/12/20 02:35:00;;;;;;;26.10;24.10;;;;;;;-1.51;100.00;101247.00;5009496;28;20060;-75
2023/12/20 02:37:40;;;;;;;28.75;26.52;;;;;;;-1.20;100.00;101237.69;5010136;28;20042;-75
2023/12/20 02:40:08;;;;;;;28.48;26.27;;;;;;;-1.10;100.00;101232.59;5008993;28;20053;-75
2023/12/20 02:42:35;;;;;;;31.02;28.83;;;;;;;-1.18;100.00;101233.19;5017418;28;20060;-76
2023/12/20 02:45:02;;;;;;;29.85;27.65;;;;;;;-1.37;100.00;101232.91;5010016;28;20042;-78
2023/12/20 02:47:29;;;;;;;32.28;29.85;;;;;;;-1.45;100.00;101230.09;5011263;28;20069;-78
2023/12/20 02:49:58;;;;;;;30.75;28.45;;;;;;;-1.42;100.00;101228.06;5009126;28;20563;-78
2023/12/20 02:52:26;;;;;;;29.08;26.88;;;;;;;-1.33;100.00;101217.88;5015174;28;20053;-75
2023/12/20 02:54:56;;;;;;;28.27;26.17;;;;;;;-1.39;100.00;101221.81;5010747;28;20046;-75
2023/12/20 02:57:23;;;;;;;26.92;24.83;;;;;;;-1.69;100.00;101228.34;5009003;28;20042;-75
2023/12/20 02:59:50;;;;;;;28.20;26.10;;;;;;;-1.69;100.00;101223.16;5010013;28;20057;-75
2023/12/20 03:02:16;;;;;;;30.10;27.90;;;;;;;-1.68;100.00;101222.19;5013055;28;20053;-75
2023/12/20 03:04:43;;;;;;;31.90;29.50;;;;;;;-1.81;100.00;101218.84;5014518;28;20057;-75
2023/12/20 03:07:11;;;;;;;32.83;30.33;;;;;;;-1.65;100.00;101211.53;5017939;28;20422;-75
2023/12/20 03:09:38;;;;;;;33.30;30.80;;;;;;;-1.53;100.00;101214.19;5008842;28;20145;-75
2023/12/20 03:12:07;;;;;;;33.45;30.90;;;;;;;-1.53;100.00;101215.00;5008670;28;20049;-78
2023/12/20 03:14:34;;;;;;;33.92;31.45;;;;;;;-1.87;100.00;101214.91;5021461;28;20050;-78
2023/12/20 03:17:03;;;;;;;29.98;27.77;;;;;;;-1.75;100.00;101210.59;5015705;28;20052;-75
2023/12/20 03:19:30;;;;;;;29.88;27.58;;;;;;;-1.61;100.00;101209.53;5015145;28;20049;-76
2023/12/20 03:21:56;;;;;;;28.45;26.35;;;;;;;-1.89;100.00;101208.97;5016514;28;20056;-75
2023/12/20 03:24:23;;;;;;;32.25;29.38;;;;;;;-1.67;100.00;101202.19;5014291;28;20557;-75
2023/12/20 03:26:50;;;;;;;31.58;29.20;;;;;;;-1.50;100.00;101195.72;5016577;28;20054;-75
2023/12/20 03:29:18;;;;;;;31.98;29.48;;;;;;;-1.35;100.00;101204.16;5023603;28;20060;-76
2023/12/20 03:31:45;;;;;;;37.58;34.88;;;;;;;-1.26;100.00;101198.22;5012241;28;20050;-75
2023/12/20 03:34:12;;;;;;;29.58;27.48;;;;;;;-1.31;100.00;101190.75;5016759;28;20054;-75
2023/12/20 03:36:39;;;;;;;29.30;27.17;;;;;;;-1.40;100.00;101187.06;5015735;28;20103;-75
2023/12/20 03:39:06;;;;;;;28.90;26.70;;;;;;;-1.38;100.00;101179.16;5017387;28;20557;-75
2023/12/20 03:41:34;;;;;;;29.05;26.85;;;;;;;-1.34;100.00;101177.94;5020480;28;20055;-75
2023/12/20 03:44:00;;;;;;;33.05;30.55;;;;;;;-1.38;100.00;101172.16;5021677;28;20049;-76
2023/12/20 03:46:29;;;;;;;30.23;27.77;;;;;;;-1.74;100.00;101159.31;5010577;28;20424;-75
2023/12/20 03:48:56;;;;;;;27.90;25.70;;;;;;;-1.60;100.00;101164.31;5003039;28;20046;-74
2023/12/20 03:51:25;;;;;;;30.90;28.70;;;;;;;-1.66;100.00;101154.38;4998917;28;20288;-74
2023/12/20 03:53:52;;;;;;;31.70;29.40;;;;;;;-1.75;100.00;101155.88;4999293;28;20431;-75
2023/12/20 03:56:19;;;;;;;26.00;24.10;;;;;;;-1.76;100.00;101155.97;5010249;28;20418;-74
2023/12/20 03:58:46;;;;;;;27.23;25.13;;;;;;;-1.84;100.00;101146.16;5010321;28;20056;-75
2023/12/20 04:01:13;;;;;;;26.00;23.85;;;;;;;-1.62;100.00;101142.75;5016763;28;20060;-74
2023/12/20 04:03:41;;;;;;;25.52;23.45;;;;;;;-1.55;100.00;101136.13;5015382;28;20049;-74
2023/12/20 04:06:11;;;;;;;28.30;26.10;;;;;;;-1.75;100.00;101135.06;5012535;28;20430;-74
2023/12/20 04:08:40;;;;;;;28.65;26.45;;;;;;;-1.81;100.00;101143.31;5019884;28;20038;-73
2023/12/20 04:11:08;;;;;;;26.08;24.02;;;;;;;-1.65;100.00;101140.38;5009607;28;20046;-75
2023/12/20 04:13:35;;;;;;;26.75;24.75;;;;;;;-1.61;100.00;101137.41;5019725;28;20408;-75
2023/12/20 04:16:01;;;;;;;25.63;23.65;;;;;;;-1.98;100.00;101133.34;5006517;28;20049;-75
2023/12/20 04:18:28;;;;;;;24.50;22.70;;;;;;;-1.93;100.00;101141.63;5011841;28;20431;-74
2023/12/20 04:20:58;;;;;;;24.95;23.00;;;;;;;-2.10;100.00;101141.09;5013648;28;20060;-76
2023/12/20 04:23:25;;;;;;;24.90;22.80;;;;;;;-2.01;100.00;101129.19;5022371;28;20046;-75
2023/12/20 04:25:51;;;;;;;24.50;22.50;;;;;;;-1.82;100.00;101120.00;5009434;28;20744;-74
2023/12/20 04:28:18;;;;;;;24.70;22.88;;;;;;;-2.12;100.00;101130.00;5018032;28;20053;-75
2023/12/20 04:30:45;;;;;;;23.85;22.05;;;;;;;-2.03;100.00;101127.63;5013578;28;20049;-75
2023/12/20 04:33:12;;;;;;;24.45;22.55;;;;;;;-2.09;100.00;101129.78;5008590;28;20050;-75
2023/12/20 04:35:40;;;;;;;24.23;22.15;;;;;;;-1.89;100.00;101128.25;5005759;28;20057;-75
2023/12/20 04:38:08;;;;;;;23.83;22.10;;;;;;;-1.81;100.00;101127.69;5010912;28;20108;-75
2023/12/20 04:40:35;;;;;;;25.80;23.90;;;;;;;-1.74;100.00;101121.06;5004989;28;20060;-76
2023/12/20 04:43:02;;;;;;;24.08;22.17;;;;;;;-1.74;100.00;101112.44;5016871;28;20042;-74
2023/12/20 04:45:29;;;;;;;25.38;23.38;;;;;;;-1.72;100.00;101118.38;5011639;28;20572;-76
2023/12/20 04:47:56;;;;;;;25.50;23.23;;;;;;;-1.92;100.00;101117.25;5016088;28;20041;-77
2023/12/20 04:50:23;;;;;;;25.92;24.02;;;;;;;-1.98;100.00;101110.72;5014792;28;20748;-77
2023/12/20 04:52:50;;;;;;;27.10;25.20;;;;;;;-1.95;100.00;101110.50;5024991;28;20128;-77
2023/12/20 04:55:18;;;;;;;26.20;24.20;;;;;;;-1.88;100.00;101116.88;5004683;28;20058;-76
2023/12/20 04:57:45;;;;;;;24.08;22.20;;;;;;;-2.10;100.00;101114.25;5004640;28;20512;-76
2023/12/20 05:00:15;;;;;;;24.55;22.40;;;;;;;-2.03;100.00;101109.41;5015000;28;20522;-76
2023/12/20 05:02:42;;;;;;;22.90;21.00;;;;;;;-1.79;100.00;101096.31;5017439;28;20107;-77
2023/12/20 05:05:09;;;;;;;33.33;30.63;;;;;;;3.34;100.00;101106.81;5012045;28;20057;-73
2023/12/20 05:07:36;;;;;;;30.75;28.65;;;;;;;-0.76;100.00;101102.16;5015476;28;20060;-74
2023/12/20 05:10:08;;;;;;;27.48;25.67;;;;;;;-1.75;100.00;101095.97;5008225;28;20046;-73
2023/12/20 05:12:37;;;;;;;24.58;22.67;;;;;;;-2.13;100.00;101106.66;5005458;28;20476;-73
2023/12/20 05:15:04;;;;;;;26.33;24.23;;;;;;;-2.22;100.00;101102.97;5006916;28;20046;-74
2023/12/20 05:17:31;;;;;;;24.65;21.90;;;;;;;-2.25;100.00;101104.97;5010044;28;20084;-73
2023/12/20 05:19:58;;;;;;;28.15;26.25;;;;;;;-2.47;100.00;101098.75;5006985;28;20042;-74
2023/12/20 05:22:25;;;;;;;26.17;24.58;;;;;;;-2.34;100.00;101096.06;5017072;28;20056;-74
2023/12/20 05:24:52;;;;;;;22.70;21.00;;;;;;;-2.10;100.00;101089.03;5010775;28;20046;-74
2023/12/20 05:27:19;;;;;;;22.60;20.90;;;;;;;-2.14;100.00;101092.84;5013285;28;20658;-74
2023/12/20 05:29:47;;;;;;;22.10;20.50;;;;;;;-2.15;100.00;101085.97;5015249;28;20046;-74
2023/12/20 05:32:14;;;;;;;22.20;20.60;;;;;;;-1.89;100.00;101075.38;5009029;28;20058;-74
2023/12/20 05:34:41;;;;;;;22.52;20.92;;;;;;;-1.86;100.00;101083.75;4994284;28;20630;-75
2023/12/20 05:37:08;;;;;;;23.50;21.85;;;;;;;-1.62;100.00;101077.63;5004220;28;20133;-74
2023/12/20 05:39:35;;;;;;;21.92;20.42;;;;;;;-2.05;100.00;101080.91;4989422;28;20047;-74
2023/12/20 05:42:02;;;;;;;24.83;23.13;;;;;;;-1.69;100.00;101077.28;5004603;28;20533;-74
2023/12/20 05:44:28;;;;;;;22.48;20.88;;;;;;;-1.90;100.00;101078.91;5004364;28;20057;-73
2023/12/20 05:46:57;;;;;;;21.88;20.38;;;;;;;-2.18;100.00;101073.19;4997184;28;20427;-73
2023/12/20 05:49:23;;;;;;;23.23;21.08;;;;;;;-2.55;100.00;101081.09;4996042;28;20046;-74
2023/12/20 05:51:51;;;;;;;20.42;19.02;;;;;;;-2.60;100.00;101082.41;4995561;28;20057;-74
2023/12/20 05:54:17;;;;;;;22.02;20.55;;;;;;;-2.36;100.00;101072.78;4954409;28;20703;-74
2023/12/20 05:56:45;;;;;;;23.65;22.05;;;;;;;-2.01;100.00;101077.13;4985791;28;20446;-74
2023/12/20 05:59:13;;;;;;;25.25;23.55;;;;;;;-2.03;100.00;101076.38;5007055;28;20061;-73
2023/12/20 06:01:40;;;;;;;23.08;21.48;;;;;;;-1.89;100.00;101073.59;4994549;28;20368;-73
2023/12/20 06:04:08;;;;;;;22.17;20.60;;;;;;;-1.79;100.00;101075.47;5006733;28;20053;-74
2023/12/20 06:06:35;;;;;;;22.30;20.80;;;;;;;-1.85;100.00;101081.97;5007423;28;20765;-73
2023/12/20 06:09:02;;;;;;;29.63;27.45;;;;;;;-1.47;100.00;101089.47;5010659;28;20062;-74
2023/12/20 06:11:29;;;;;;;31.35;28.70;;;;;;;-1.35;100.00;101086.88;4995172;28;20050;-73
2023/12/20 06:13:56;;;;;;;38.60;34.10;;;;;;;-1.21;100.00;101089.22;5009279;28;20586;-73
2023/12/20 06:16:23;;;;;;;33.10;30.55;;;;;;;-0.92;100.00;101086.91;5005453;28;20077;-74
2023/12/20 06:18:50;;;;;;;33.67;31.27;;;;;;;-0.36;100.00;101078.91;5005235;28;20046;-75
2023/12/20 06:21:18;;;;;;;32.80;30.50;;;;;;;0.11;100.00;101081.13;5022523;28;20053;-74
2023/12/20 06:23:45;;;;;;;37.45;34.72;;;;;;;0.19;100.00;101074.28;5016848;28;20050;-74
2023/12/20 06:26:13;;;;;;;33.70;31.20;;;;;;;0.63;100.00;101077.50;5004824;28;20054;-76
2023/12/20 06:28:39;;;;;;;36.38;32.92;;;;;;;0.59;100.00;101083.94;5006604;28;20055;-73
2023/12/20 06:31:06;;;;;;;37.78;34.75;;;;;;;0.90;100.00;101086.53;5005598;28;20057;-74
2023/12/20 06:33:33;;;;;;;41.10;37.35;;;;;;;1.29;100.00;101089.22;5011584;28;20499;-73
2023/12/20 06:36:00;;;;;;;44.75;41.45;;;;;;;1.60;100.00;101088.13;5008687;28;20065;-73
2023/12/20 06:38:37;;;;;;;45.42;42.08;;;;;;;1.84;100.00;101068.53;5005249;28;20117;-74
2023/12/20 06:41:04;;;;;;;46.97;43.45;;;;;;;2.50;100.00;101067.66;5005952;28;20057;-74
2023/12/20 06:43:32;;;;;;;48.10;44.53;;;;;;;2.15;100.00;101061.31;5001765;28;20061;-74
2023/12/20 06:45:59;;;;;;;43.60;39.80;;;;;;;2.68;100.00;101060.66;4999552;28;20053;-74
2023/12/20 06:48:25;;;;;;;34.72;32.13;;;;;;;2.60;100.00;101070.22;4999234;28;20049;-74
2023/12/20 06:50:53;;;;;;;34.20;31.55;;;;;;;2.90;100.00;101058.59;5006884;28;20068;-74
2023/12/20 06:53:20;;;;;;;38.63;35.72;;;;;;;3.68;100.00;101062.28;5001181;28;20078;-75
2023/12/20 06:55:48;;;;;;;34.42;31.92;;;;;;;4.03;100.00;101057.94;5002566;28;20452;-74
2023/12/20 06:58:15;;;;;;;33.53;31.00;;;;;;;4.24;100.00;101051.50;5004800;28;20038;-74
2023/12/20 07:00:42;;;;;;;31.02;28.73;;;;;;;3.31;100.00;101049.34;5009277;28;20065;-74
2023/12/20 07:03:10;;;;;;;31.08;28.88;;;;;;;4.78;100.00;101047.63;5007789;28;20053;-73
2023/12/20 07:05:43;;;;;;;30.45;28.25;;;;;;;5.16;100.00;101049.84;5013584;28;20053;-73
2023/12/20 07:08:14;;;;;;;29.35;27.27;;;;;;;4.66;100.00;101045.41;5013539;28;20480;-74
2023/12/20 07:10:41;;;;;;;33.10;30.75;;;;;;;5.32;100.00;101044.56;5009488;28;20045;-73
2023/12/20 07:13:09;;;;;;;30.88;28.67;;;;;;;5.23;100.00;101042.91;5016596;28;20104;-74
2023/12/20 07:15:37;;;;;;;31.20;28.52;;;;;;;5.32;100.00;101033.22;4999483;28;20459;-75
2023/12/20 07:18:05;;;;;;;34.78;31.83;;;;;;;6.01;100.00;101029.25;5019564;28;20071;-75
2023/12/20 07:20:32;;;;;;;34.67;31.20;;;;;;;5.79;100.00;101027.28;5013245;28;20054;-74
2023/12/20 07:22:58;;;;;;;34.95;32.00;;;;;;;5.91;100.00;101018.88;5019014;28;20451;-74
2023/12/20 07:25:25;;;;;;;37.88;34.13;;;;;;;6.08;100.00;101013.56;5001395;28;20053;-74
2023/12/20 07:27:52;;;;;;;34.13;31.52;;;;;;;6.51;100.00;101020.19;5013712;28;20531;-74
2023/12/20 07:30:20;;;;;;;31.23;28.92;;;;;;;7.06;100.00;101005.22;5005437;28;20049;-73
2023/12/20 07:32:48;;;;;;;29.83;27.50;;;;;;;7.05;100.00;101017.59;5020415;28;20052;-72
2023/12/20 07:35:14;;;;;;;30.20;27.67;;;;;;;7.65;100.00;101005.38;5007413;28;20085;-75
2023/12/20 07:37:41;;;;;;;30.48;28.35;;;;;;;7.07;100.00;101005.00;5011734;28;20060;-73
2023/12/20 07:40:11;;;;;;;28.77;26.77;;;;;;;6.65;100.00;100997.50;5009797;28;20742;-75
2023/12/20 07:42:38;;;;;;;29.45;27.25;;;;;;;6.65;100.00;100993.06;5020891;28;20053;-74
2023/12/20 07:45:05;;;;;;;28.88;26.85;;;;;;;5.73;100.00;100992.69;5024506;28;20076;-75
2023/12/20 07:47:33;;;;;;;30.35;27.70;;;;;;;5.47;100.00;100987.59;4998522;28;20060;-73
2023/12/20 07:50:00;;;;;;;26.60;24.70;;;;;;;6.12;100.00;100988.53;4995234;28;20077;-73
2023/12/20 07:52:27;;;;;;;27.88;26.00;;;;;;;6.05;100.00;100990.19;5005325;28;20061;-73
2023/12/20 07:54:54;;;;;;;25.45;23.65;;;;;;;6.24;100.00;100983.72;5001932;28;20057;-74
2023/12/20 07:57:21;;;;;;;26.27;24.48;;;;;;;5.93;100.00;100987.06;4992703;28;20148;-74
2023/12/20 07:59:48;;;;;;;25.55;23.85;;;;;;;5.80;100.00;100995.47;4991424;28;20045;-73
2023/12/20 08:02:15;;;;;;;23.92;22.13;;;;;;;5.55;100.00;100999.16;5002577;28;20054;-73
2023/12/20 08:04:43;;;;;;;24.55;22.85;;;;;;;6.14;100.00;100991.78;5009228;28;20060;-75
2023/12/20 08:07:10;;;;;;;23.67;22.17;;;;;;;5.82;100.00;100990.88;5005479;28;20058;-74
2023/12/20 08:09:37;;;;;;;22.92;21.25;;;;;;;5.38;100.00;100991.25;5000086;28;20049;-74
2023/12/20 08:12:05;;;;;;;24.95;23.45;;;;;;;5.41;100.00;100998.00;4995680;28;20740;-72
2023/12/20 08:14:32;;;;;;;22.77;21.27;;;;;;;4.61;100.00;100998.56;4997650;28;20053;-73
2023/12/20 08:16:58;;;;;;;21.30;20.00;;;;;;;5.44;100.00;100997.66;5009249;28;20060;-74
2023/12/20 08:19:25;;;;;;;20.52;19.13;;;;;;;5.10;100.00;101003.91;5007895;28;20499;-74
2023/12/20 08:21:54;;;;;;;21.77;20.27;;;;;;;5.11;100.00;101002.09;5004549;28;20073;-73
2023/12/20 08:24:21;;;;;;;23.52;21.92;;;;;;;5.00;100.00;100990.91;5010934;28;20091;-75
2023/12/20 08:26:49;;;;;;;24.00;21.98;;;;;;;4.92;100.00;100977.72;5013256;28;20053;-75
2023/12/20 08:29:16;;;;;;;24.38;22.88;;;;;;;4.98;100.00;100977.06;5007476;28;20510;-75
2023/12/20 08:31:43;;;;;;;23.88;22.48;;;;;;;4.68;100.00;100972.41;5008201;28;20054;-74
2023/12/20 08:34:11;;;;;;;25.55;24.05;;;;;;;4.76;100.00;100962.72;5018192;28;20060;-74
2023/12/20 08:36:38;;;;;;;24.45;22.88;;;;;;;4.78;100.00;100952.03;5004126;28;20717;-74
2023/12/20 08:39:08;;;;;;;24.45;23.05;;;;;;;5.12;100.00;100946.66;5000499;28;20050;-74
2023/12/20 08:41:36;;;;;;;24.38;22.98;;;;;;;4.53;100.00;100944.09;5000574;28;20435;-74
2023/12/20 08:44:03;;;;;;;25.27;23.67;;;;;;;4.72;100.00;100944.78;5000800;28;20050;-73
2023/12/20 08:46:30;;;;;;;23.02;21.63;;;;;;;4.64;100.00;100935.09;4989066;28;20449;-74
2023/12/20 08:48:58;;;;;;;25.17;23.60;;;;;;;4.55;100.00;100939.50;4999647;28;20050;-73
2023/12/20 08:51:25;;;;;;;26.27;24.63;;;;;;;4.63;100.00;100937.88;5000560;28;20057;-73
2023/12/20 08:53:52;;;;;;;25.38;23.77;;;;;;;4.72;100.00;100929.00;5012866;28;20050;-75
2023/12/20 08:56:20;;;;;;;24.75;23.20;;;;;;;4.65;100.00;100922.75;5008271;28;20461;-74
2023/12/20 08:58:48;;;;;;;23.92;22.42;;;;;;;4.87;100.00;100922.13;5016809;28;20060;-75
2023/12/20 09:01:15;;;;;;;25.20;23.50;;;;;;;4.71;100.00;100920.28;5005775;28;20060;-74
2023/12/20 09:03:42;;;;;;;24.15;22.65;;;;;;;5.10;100.00;100905.66;5007891;28;20439;-74
2023/12/20 09:06:08;;;;;;;24.88;23.27;;;;;;;5.26;100.00;100900.38;5008556;28;20057;-74
2023/12/20 09:08:35;;;;;;;25.88;24.27;;;;;;;5.51;100.00;100896.72;4996727;28;20050;-74
2023/12/20 09:11:05;;;;;;;24.27;22.77;;;;;;;5.68;100.00;100880.88;5002179;28;20508;-74
2023/12/20 09:13:34;;;;;;;23.90;22.20;;;;;;;5.40;100.00;100880.44;5009367;28;20050;-75
2023/12/20 09:16:01;;;;;;;28.67;26.50;;;;;;;5.73;100.00;100873.28;5016584;28;20157;-73
2023/12/20 09:18:28;;;;;;;22.70;21.30;;;;;;;6.07;100.00;100875.63;5003590;28;20053;-74
2023/12/20 09:20:55;;;;;;;22.50;21.10;;;;;;;5.90;100.00;100869.59;5015639;28;20057;-73
2023/12/20 09:23:25;;;;;;;27.38;25.67;;;;;;;7.65;100.00;100869.72;5016068;28;20049;-74
2023/12/20 09:25:51;;;;;;;23.00;21.50;;;;;;;7.54;100.00;100866.56;5005305;28;20046;-74
2023/12/20 09:28:18;;;;;;;23.20;21.70;;;;;;;7.53;100.00;100857.00;5016082;28;20054;-75
2023/12/20 09:30:47;;;;;;;25.55;20.58;;;;;;;7.37;100.00;100848.41;5008926;28;20046;-75
2023/12/20 09:33:16;;;;;;;21.50;20.10;;;;;;;7.14;100.00;100841.38;5011285;28;20053;-74
2023/12/20 09:35:43;;;;;;;23.88;22.13;;;;;;;7.16;100.00;100836.72;5005959;28;20311;-75
2023/12/20 09:38:10;;;;;;;22.48;21.08;;;;;;;7.44;100.00;100826.34;5010184;28;20874;-75
2023/12/20 09:40:39;;;;;;;20.98;19.58;;;;;;;7.54;100.00;100823.44;5006389;28;20427;-74
2023/12/20 09:43:11;;;;;;;20.70;19.20;;;;;;;8.05;100.00;100818.16;5008310;28;20042;-74
2023/12/20 09:45:40;;;;;;;22.08;20.50;;;;;;;7.96;100.00;100798.94;5016318;28;20065;-73
2023/12/20 09:48:12;;;;;;;39.53;19.73;;;;;;;8.19;100.00;100795.31;5010789;28;20056;-74
2023/12/20 09:50:39;;;;;;;21.60;20.20;;;;;;;8.84;100.00;100783.69;4999179;28;20050;-75
2023/12/20 09:53:08;;;;;;;21.13;19.73;;;;;;;9.40;100.00;100780.16;5002358;28;20049;-75
2023/12/20 09:55:37;;;;;;;20.80;19.40;;;;;;;9.20;100.00;100771.25;5006213;28;20045;-74
2023/12/20 09:58:05;;;;;;;19.98;18.67;;;;;;;8.64;100.00;100772.13;5009279;28;20049;-75
2023/12/20 10:00:32;;;;;;;24.13;22.10;;;;;;;8.29;100.00;100768.53;5009594;28;20112;-73
2023/12/20 10:03:04;;;;;;;20.55;19.15;;;;;;;9.88;100.00;100763.41;5007836;28;20124;-73
2023/12/20 10:05:36;;;;;;;21.70;20.30;;;;;;;11.09;100.00;100755.28;5018012;28;20526;-73
2023/12/20 10:08:03;;;;;;;21.02;19.55;;;;;;;12.09;100.00;100745.06;5009842;28;20050;-74
2023/12/20 10:10:30;;;;;;;23.13;21.73;;;;;;;10.95;100.00;100739.38;5012485;28;20503;-74
2023/12/20 10:13:05;;;;;;;20.98;19.58;;;;;;;11.09;100.00;100729.53;5024937;28;20048;-74
2023/12/20 10:15:32;;;;;;;20.60;19.10;;;;;;;12.21;100.00;100727.34;5017187;28;20050;-74
2023/12/20 10:17:59;;;;;;;20.55;19.05;;;;;;;13.13;100.00;100727.56;5018328;28;20046;-74
2023/12/20 10:20:28;;;;;;;22.25;20.65;;;;;;;12.47;100.00;100717.53;5010807;28;20477;-74
2023/12/20 10:22:58;;;;;;;21.67;20.08;;;;;;;12.09;100.00;100713.91;5010068;28;20112;-74
2023/12/20 10:25:25;;;;;;;20.30;18.90;;;;;;;11.96;100.00;100714.03;5002588;28;20416;-75
2023/12/20 10:28:13;;;;;;;21.55;20.05;;;;;;;12.21;100.00;100698.06;5016227;28;20436;-75
2023/12/20 10:30:40;;;;;;;22.10;20.70;;;;;;;11.63;100.00;100707.00;5015191;28;20472;-75
2023/12/20 10:33:08;;;;;;;21.73;20.13;;;;;;;12.39;100.00;100702.63;5012945;28;20042;-75
2023/12/20 10:35:38;;;;;;;20.65;19.25;;;;;;;13.36;100.00;100694.88;5014043;28;20478;-74
2023/12/20 10:38:07;;;;;;;21.80;20.30;;;;;;;14.28;100.00;100689.25;5012324;28;20041;-73
2023/12/20 10:40:39;;;;;;;20.98;19.48;;;;;;;12.75;100.00;100677.91;5013610;28;20499;-74
2023/12/20 10:43:06;;;;;;;21.88;20.30;;;;;;;13.42;100.00;100674.50;5010776;28;20054;-75
2023/12/20 10:45:34;;;;;;;21.55;20.00;;;;;;;14.73;100.00;100664.63;5011431;28;20045;-75
2023/12/20 10:48:03;;;;;;;22.95;21.45;;;;;;;14.02;100.00;100657.63;5006971;28;20111;-75
2023/12/20 10:50:31;;;;;;;23.27;21.77;;;;;;;14.90;100.00;100656.69;5013990;28;20053;-76
2023/12/20 10:52:59;;;;;;;21.70;20.20;;;;;;;15.52;100.00;100653.34;5017461;28;20050;-76
2023/12/20 10:55:27;;;;;;;21.77;20.27;;;;;;;14.17;100.00;100648.09;5009948;28;20054;-74
2023/12/20 10:58:01;;;;;;;22.88;21.17;;;;;;;14.19;100.00;100638.00;5010666;28;20056;-75
2023/12/20 11:00:30;;;;;;;23.58;21.67;;;;;;;15.71;100.00;100649.44;5021329;28;20056;-75
2023/12/20 11:03:02;;;;;;;23.80;21.90;;;;;;;16.72;100.00;100632.47;5014920;28;20060;-75
2023/12/20 11:05:39;;;;;;;25.85;23.95;;;;;;;16.92;100.00;100626.59;5009828;28;20076;-74
2023/12/20 11:08:11;;;;;;;25.70;23.50;;;;;;;16.48;100.00;100623.81;5016817;28;20679;-75